Time;durP1;ratioP1;P1;durP2;ratioP2;P2;SDS_P1;SDS_P2;PMS_P1;PMS_P2;Temp;Humidity;BMP_temperature;BMP_pressure;BME280_temperature;BME280_humidity;BME280_pressure;Samples;Min_cycle;Max_cycle;Signal;HPM_P1;HPM_P2
2022/04/02 00:01:17;;;;;;;10.68;8.32;;;;;;;3.13;58.28;97661.50;5070208;28;20078;-69
2022/04/02 00:03:46;;;;;;;10.20;8.43;;;;;;;3.15;58.11;97654.44;5069697;28;20060;-70
2022/04/02 00:06:17;;;;;;;11.90;8.82;;;;;;;2.80;58.37;97611.75;5087147;28;20327;-70
2022/04/02 00:08:46;;;;;;;10.38;8.38;;;;;;;2.81;58.69;97605.59;5087210;28;20041;-70
2022/04/02 00:11:16;;;;;;;10.93;9.15;;;;;;;2.78;58.54;97591.84;5070291;28;20117;-69
2022/04/02 00:13:47;;;;;;;12.32;7.93;;;;;;;3.11;58.61;97652.06;5087391;28;20028;-70
2022/04/02 00:16:18;;;;;;;11.55;9.48;;;;;;;2.67;58.57;97600.25;5087113;28;20104;-70
2022/04/02 00:18:49;;;;;;;10.43;8.55;;;;;;;3.11;58.73;97658.13;5087054;28;20047;-70
2022/04/02 00:21:18;;;;;;;10.98;8.55;;;;;;;3.11;58.69;97658.13;5087568;28;20137;-69
2022/04/02 00:23:47;;;;;;;10.57;9.48;;;;;;;-2.38;58.70;96756.28;5086969;28;20052;-69
2022/04/02 00:26:19;;;;;;;9.23;7.80;;;;;;;3.12;58.83;97664.22;5086955;28;20090;-70
2022/04/02 00:28:49;;;;;;;9.65;7.57;;;;;;;3.14;58.68;97662.34;5086759;28;20063;-69
2022/04/02 00:31:20;;;;;;;9.63;8.35;;;;;;;3.22;58.50;97677.66;5086888;28;20324;-69
2022/04/02 00:33:50;;;;;;;11.70;8.68;;;;;;;2.17;58.73;97517.38;5069540;28;20063;-69
2022/04/02 00:36:21;;;;;;;10.25;8.20;;;;;;;3.18;58.52;97658.66;5069103;28;20060;-69
2022/04/02 00:38:49;;;;;;;8.70;7.75;;;;;;;3.14;58.94;97664.97;5086318;28;20049;-69
2022/04/02 00:41:18;;;;;;;11.40;9.00;;;;;;;2.79;58.84;97604.84;5086863;28;20102;-69
2022/04/02 00:43:57;;;;;;;10.50;8.68;;;;;;;3.16;58.96;97658.72;5086536;28;20052;-70
2022/04/02 00:46:31;;;;;;;10.60;8.35;;;;;;;2.91;58.77;97626.06;5086522;28;20297;-69
2022/04/02 00:49:04;;;;;;;10.65;8.88;;;;;;;2.96;58.95;97626.69;5086501;28;20346;-68
2022/04/02 00:51:41;;;;;;;12.18;8.55;;;;;;;3.13;59.16;97669.38;5086466;28;20090;-69
2022/04/02 00:54:15;;;;;;;10.65;9.45;;;;;;;3.14;59.20;97664.97;5086255;28;20347;-69
2022/04/02 00:56:48;;;;;;;10.10;8.02;;;;;;;2.27;59.20;97548.28;5086278;28;20227;-69
2022/04/02 00:59:20;;;;;;;13.32;9.38;;;;;;;3.14;59.26;97673.69;5086224;28;20082;-70
2022/04/02 01:01:54;;;;;;;9.48;8.05;;;;;;;3.18;59.26;97661.28;5086458;28;20346;-70
2022/04/02 01:04:26;;;;;;;10.32;8.68;;;;;;;3.19;59.38;97660.34;5085925;28;20057;-70
2022/04/02 01:07:00;;;;;;;11.35;8.50;;;;;;;2.98;59.19;97609.13;5068655;28;20220;-70
2022/04/02 01:09:32;;;;;;;12.07;9.40;;;;;;;3.23;59.21;97648.78;5086110;28;20098;-70
2022/04/02 01:12:05;;;;;;;11.15;9.43;;;;;;;3.22;59.37;97641.88;5085967;28;20433;-69
2022/04/02 01:14:37;;;;;;;10.50;9.02;;;;;;;3.23;59.34;97648.78;5086003;28;20045;-69
2022/04/02 01:17:11;;;;;;;12.63;9.65;;;;;;;3.23;59.27;97648.78;5086265;28;20036;-69
2022/04/02 01:19:43;;;;;;;13.75;9.27;;;;;;;-2.06;59.06;96772.16;5086323;28;20040;-69
2022/04/02 01:22:17;;;;;;;16.30;9.93;;;;;;;3.24;59.23;97649.63;5085836;28;20040;-69
2022/04/02 01:24:50;;;;;;;11.88;9.13;;;;;;;3.24;59.24;97647.84;5086113;28;20040;-70
2022/04/02 01:27:23;;;;;;;12.32;9.35;;;;;;;3.14;59.33;97634.41;5085806;28;20052;-69
2022/04/02 01:29:56;;;;;;;10.48;8.65;;;;;;;3.24;59.38;97639.16;5086114;28;20315;-70
2022/04/02 01:32:29;;;;;;;10.52;9.10;;;;;;;-5.66;58.72;96164.38;5085638;28;20047;-70
2022/04/02 01:35:01;;;;;;;10.73;8.45;;;;;;;3.22;59.21;97651.47;5085211;28;20289;-69
2022/04/02 01:37:35;;;;;;;12.77;9.65;;;;;;;3.23;59.35;97653.19;5086270;28;20041;-70
2022/04/02 01:40:08;;;;;;;14.95;10.60;;;;;;;3.18;59.48;97656.88;5085959;28;20092;-70
2022/04/02 01:42:41;;;;;;;14.63;11.18;;;;;;;3.15;59.40;97664.91;5068120;28;20209;-70
2022/04/02 01:45:15;;;;;;;13.80;10.38;;;;;;;2.91;59.46;97620.84;5085789;28;20040;-70
2022/04/02 01:47:50;;;;;;;14.63;10.85;;;;;;;3.21;59.50;97668.97;5085579;28;20200;-69
2022/04/02 01:50:22;;;;;;;;;;;;;;;3.12;59.58;97661.59;5086571;28;20067;-70
2022/04/02 01:52:56;;;;;;;10.73;8.48;;;;;;;3.12;59.72;97664.22;5085491;28;19923;-70
2022/04/02 01:55:28;;;;;;;19.55;9.68;;;;;;;3.14;59.71;97668.44;5085511;28;20036;-70
2022/04/02 01:58:01;;;;;;;10.75;9.18;;;;;;;3.13;59.58;97663.28;5068003;28;20285;-70
2022/04/02 02:00:33;;;;;;;12.40;9.98;;;;;;;2.05;59.65;97509.31;5085750;28;20036;-70
2022/04/02 02:03:06;;;;;;;12.60;9.90;;;;;;;2.67;59.38;97620.31;5067922;28;20055;-70
2022/04/02 02:05:39;;;;;;;13.13;10.88;;;;;;;3.12;59.74;97670.28;5085343;28;20064;-69
2022/04/02 02:08:13;;;;;;;11.98;8.88;;;;;;;3.12;59.60;97675.53;5067951;28;20041;-70
2022/04/02 02:10:47;;;;;;;13.47;9.80;;;;;;;3.15;59.47;97677.13;5085333;28;20315;-70
2022/04/02 02:13:20;;;;;;;10.27;8.80;;;;;;;3.20;59.55;97670.75;5085491;28;20418;-70
2022/04/02 02:15:52;;;;;;;12.18;9.82;;;;;;;3.21;59.56;97668.97;5085617;28;20040;-70
2022/04/02 02:18:24;;;;;;;11.57;10.35;;;;;;;3.17;59.55;97675.28;5085600;28;20037;-70
2022/04/02 02:20:57;;;;;;;10.20;8.70;;;;;;;2.92;59.54;97630.38;5067868;28;20044;-70
2022/04/02 02:23:31;;;;;;;16.90;10.43;;;;;;;3.22;59.57;97660.19;5067827;28;20189;-69
2022/04/02 02:26:03;;;;;;;12.25;8.77;;;;;;;3.23;59.54;97668.88;5085455;28;20036;-70
2022/04/02 02:28:36;;;;;;;13.85;10.15;;;;;;;3.20;59.55;97664.66;5085211;28;20049;-71
2022/04/02 02:31:08;;;;;;;10.95;9.75;;;;;;;3.23;59.35;97659.25;5085126;28;20037;-69
2022/04/02 02:36:30;;;;;;;11.57;8.57;;;;;;;3.23;59.54;97661.88;5067642;28;20288;-70
2022/04/02 02:39:02;;;;;;;11.60;9.40;;;;;;;3.24;59.55;97660.09;5085403;28;20040;-70
2022/04/02 02:41:30;;;;;;;10.85;8.55;;;;;;;3.24;59.64;97655.72;5085336;28;20048;-70
2022/04/02 02:44:01;;;;;;;12.25;9.35;;;;;;;3.29;59.48;97668.56;5085224;28;20051;-70
2022/04/02 02:46:32;;;;;;;12.02;8.90;;;;;;;2.37;59.38;97545.13;5086087;28;20036;-70
2022/04/02 02:49:01;;;;;;;12.65;9.52;;;;;;;3.24;59.50;97673.19;5089103;28;20037;-70
2022/04/02 02:51:32;;;;;;;10.73;9.00;;;;;;;3.27;59.57;97670.41;5071653;28;20041;-70
2022/04/02 02:54:03;;;;;;;12.70;9.25;;;;;;;3.22;59.53;97665.41;5088671;28;20208;-70
2022/04/02 02:56:32;;;;;;;12.50;9.60;;;;;;;2.77;59.43;97585.75;5071540;28;20051;-70
2022/04/02 02:59:04;;;;;;;10.95;8.27;;;;;;;3.24;59.44;97663.56;5088901;28;20086;-70
2022/04/02 03:01:33;;;;;;;12.05;8.88;;;;;;;3.20;59.11;97652.41;5071428;28;20212;-70
2022/04/02 03:04:03;;;;;;;10.85;8.27;;;;;;;3.19;59.18;97655.09;5067781;28;20072;-69
2022/04/02 03:06:33;;;;;;;11.30;8.43;;;;;;;3.24;59.03;97658.34;5068890;28;20044;-69
2022/04/02 03:09:05;;;;;;;10.75;8.75;;;;;;;3.19;59.06;97666.44;5068500;28;20045;-69
2022/04/02 03:11:34;;;;;;;12.23;9.50;;;;;;;3.14;59.03;97672.81;5067743;28;20040;-70
2022/04/02 03:14:04;;;;;;;11.77;8.85;;;;;;;3.12;59.19;97685.16;5068699;28;20047;-71
2022/04/02 03:16:34;;;;;;;10.70;8.63;;;;;;;3.07;59.21;97688.00;5068710;28;20040;-70
2022/04/02 03:19:06;;;;;;;9.82;8.18;;;;;;;3.14;59.03;97688.53;5068641;28;20037;-71
2022/04/02 03:21:35;;;;;;;9.25;7.43;;;;;;;3.11;58.89;97686.06;5068658;28;20040;-71
2022/04/02 03:24:07;;;;;;;10.35;8.15;;;;;;;3.09;59.01;97685.31;5068585;28;20041;-70
2022/04/02 03:26:35;;;;;;;10.02;8.55;;;;;;;3.07;59.23;97692.41;5068442;28;20056;-71
2022/04/02 03:29:06;;;;;;;10.65;8.63;;;;;;;1.80;59.08;97526.19;5068462;28;20044;-69
2022/04/02 03:31:35;;;;;;;9.45;7.47;;;;;;;3.07;59.25;97689.78;5068469;28;20041;-69
2022/04/02 03:34:08;;;;;;;12.15;7.95;;;;;;;3.05;59.17;97689.84;5067971;28;20044;-69
2022/04/02 03:36:37;;;;;;;9.00;7.38;;;;;;;3.03;58.95;97690.84;5068602;28;20048;-69
2022/04/02 03:39:08;;;;;;;9.82;7.25;;;;;;;2.63;58.79;97627.47;5068225;28;20041;-69
2022/04/02 03:41:37;;;;;;;11.05;7.90;;;;;;;3.03;58.94;97693.47;5067322;28;20048;-69
2022/04/02 03:44:07;;;;;;;9.07;7.60;;;;;;;3.03;58.90;97688.25;5067275;28;20040;-70
2022/04/02 03:49:27;;;;;;;10.73;8.30;;;;;;;2.74;58.92;97638.25;5067652;28;20047;-69
2022/04/02 03:51:59;;;;;;;9.32;7.78;;;;;;;1.70;58.64;97503.22;5067654;28;20041;-69
2022/04/02 03:54:35;;;;;;;10.98;7.80;;;;;;;3.09;58.62;97701.00;5066940;28;20045;-69
2022/04/02 03:57:09;;;;;;;9.90;7.90;;;;;;;3.08;58.74;97701.94;5067218;28;20044;-69
2022/04/02 03:59:43;;;;;;;9.55;7.75;;;;;;;3.07;58.75;97702.88;5066788;28;20036;-70
2022/04/02 04:02:15;;;;;;;8.63;7.25;;;;;;;3.07;58.83;97702.88;5067008;28;20048;-69
2022/04/02 04:04:48;;;;;;;12.75;8.32;;;;;;;3.09;58.73;97712.34;5066593;28;20052;-70
2022/04/02 04:07:20;;;;;;;9.55;8.45;;;;;;;2.80;58.59;97671.94;5067379;28;20041;-70
2022/04/02 04:09:54;;;;;;;9.70;7.50;;;;;;;3.05;58.58;97717.81;5066602;28;20041;-70
2022/04/02 04:12:26;;;;;;;9.50;8.43;;;;;;;3.05;58.57;97720.41;5067296;28;20040;-69
2022/04/02 04:14:59;;;;;;;11.75;8.27;;;;;;;3.03;58.52;97714.41;5067419;28;20052;-69
2022/04/02 04:17:31;;;;;;;10.82;7.75;;;;;;;3.02;58.60;97713.56;5067221;28;20041;-69
2022/04/02 04:20:04;;;;;;;11.63;8.82;;;;;;;2.63;58.71;97658.00;5067387;28;20040;-69
2022/04/02 04:22:37;;;;;;;11.75;7.80;;;;;;;2.98;58.61;97722.50;5067086;28;20056;-69
2022/04/02 04:25:11;;;;;;;11.48;7.97;;;;;;;2.94;58.25;97714.88;5066983;28;20086;-70
2022/04/02 04:27:43;;;;;;;10.20;7.63;;;;;;;2.97;58.38;97726.03;5066500;28;20041;-69
2022/04/02 04:30:15;;;;;;;11.77;8.23;;;;;;;2.93;58.52;97721.88;5066955;28;20041;-70
2022/04/02 04:32:48;;;;;;;11.05;7.55;;;;;;;2.93;58.66;97721.88;5066102;28;20052;-69
2022/04/02 04:35:20;;;;;;;9.88;7.10;;;;;;;2.69;58.40;97689.94;5066777;28;20041;-70
2022/04/02 04:37:53;;;;;;;10.73;8.50;;;;;;;2.22;58.53;97619.09;5066807;28;20041;-69
2022/04/02 04:40:27;;;;;;;8.13;6.68;;;;;;;2.97;58.64;97725.19;5067015;28;20044;-69
2022/04/02 04:42:59;;;;;;;9.68;7.90;;;;;;;3.00;58.50;97719.81;5066767;28;20211;-70
2022/04/02 04:45:31;;;;;;;9.40;7.13;;;;;;;3.02;58.44;97717.94;5065938;28;20063;-70
2022/04/02 04:48:04;;;;;;;8.80;7.90;;;;;;;3.02;58.17;97725.81;5065845;28;20048;-70
2022/04/02 04:50:37;;;;;;;9.45;8.23;;;;;;;2.99;58.39;97720.72;5066068;28;20044;-70
2022/04/02 04:53:10;;;;;;;11.07;7.45;;;;;;;2.94;58.55;97726.19;5066766;28;20041;-69
2022/04/02 04:55:43;;;;;;;11.25;8.30;;;;;;;2.94;58.22;97723.56;5066667;28;20036;-69
2022/04/02 04:58:16;;;;;;;10.98;7.82;;;;;;;2.97;58.55;97725.19;5066686;28;20091;-69
2022/04/02 05:00:48;;;;;;;11.52;8.07;;;;;;;1.69;58.47;97543.31;5065623;28;20048;-70
2022/04/02 05:03:21;;;;;;;9.65;7.95;;;;;;;3.04;58.31;97737.88;5066671;28;20068;-70
2022/04/02 05:05:55;;;;;;;9.32;7.85;;;;;;;3.09;58.10;97725.41;5066226;28;20044;-69
2022/04/02 05:08:28;;;;;;;8.98;7.57;;;;;;;-0.21;58.14;97190.75;5066284;28;20040;-69
2022/04/02 05:11:02;;;;;;;11.07;7.68;;;;;;;3.09;58.25;97740.28;5065646;28;20041;-70
2022/04/02 05:13:34;;;;;;;12.02;9.00;;;;;;;3.08;58.30;97749.06;5048702;28;20045;-69
2022/04/02 05:16:07;;;;;;;10.73;7.30;;;;;;;3.05;58.36;97742.19;5066145;28;20044;-69
2022/04/02 05:18:40;;;;;;;11.93;8.50;;;;;;;2.13;58.30;97583.78;5065949;28;20273;-69
2022/04/02 05:21:12;;;;;;;10.07;8.40;;;;;;;3.03;58.48;97749.28;5066190;28;20041;-70
2022/04/02 05:23:45;;;;;;;8.80;7.50;;;;;;;3.02;58.24;97746.75;5066126;28;20048;-69
2022/04/02 05:26:19;;;;;;;10.20;8.80;;;;;;;1.66;58.30;97517.34;5065786;28;20205;-69
2022/04/02 05:28:51;;;;;;;12.90;8.02;;;;;;;3.02;58.29;97757.22;5065825;28;20037;-70
2022/04/02 05:31:23;;;;;;;10.50;8.63;;;;;;;3.04;58.18;97750.13;5065973;28;20041;-69
2022/04/02 05:33:56;;;;;;;10.10;7.32;;;;;;;3.00;58.30;97745.97;5065575;28;20212;-69
2022/04/02 05:36:28;;;;;;;13.23;7.80;;;;;;;3.05;58.36;97751.81;5065391;28;20051;-70
2022/04/02 05:39:01;;;;;;;8.63;7.60;;;;;;;3.05;58.29;97741.34;5065832;28;20043;-69
2022/04/02 05:41:37;;;;;;;11.32;8.43;;;;;;;2.81;58.07;97704.19;5065594;28;20041;-69
2022/04/02 05:44:09;;;;;;;13.50;8.65;;;;;;;2.71;58.27;97695.09;5065469;28;20048;-69
2022/04/02 05:46:41;;;;;;;11.93;7.90;;;;;;;3.04;58.17;97757.97;5065496;28;20040;-69
2022/04/02 05:49:14;;;;;;;10.85;8.48;;;;;;;3.02;58.53;97758.06;5065433;28;20052;-70
2022/04/02 05:51:44;;;;;;;9.82;7.43;;;;;;;3.04;58.44;97765.84;5065694;28;20059;-70
2022/04/02 05:54:14;;;;;;;13.95;8.15;;;;;;;2.83;58.42;97725.88;5065549;28;20037;-69
2022/04/02 05:56:46;;;;;;;11.85;8.88;;;;;;;2.71;58.29;97735.19;5065521;28;20048;-70
2022/04/02 05:59:15;;;;;;;8.90;7.78;;;;;;;3.09;58.32;97762.06;5047896;28;20037;-69
2022/04/02 06:01:45;;;;;;;10.57;7.80;;;;;;;2.60;58.34;97698.25;5065218;28;20044;-70
2022/04/02 06:04:16;;;;;;;12.90;8.13;;;;;;;3.09;58.01;97758.59;5072186;28;20056;-69
2022/04/02 06:06:46;;;;;;;10.25;8.07;;;;;;;3.14;58.00;97757.44;5068605;28;20311;-69
2022/04/02 06:09:16;;;;;;;17.70;7.97;;;;;;;2.71;58.08;97689.88;5085512;28;20040;-69
2022/04/02 06:11:47;;;;;;;12.82;8.20;;;;;;;3.08;57.73;97770.84;5068049;28;20048;-70
2022/04/02 06:14:16;;;;;;;10.27;8.18;;;;;;;3.07;57.88;97778.78;5085526;28;20063;-69
2022/04/02 06:16:46;;;;;;;9.80;7.68;;;;;;;1.76;57.87;97565.59;5085379;28;20285;-70
2022/04/02 06:19:19;;;;;;;13.68;7.97;;;;;;;3.10;57.67;97781.22;5085345;28;20248;-70
2022/04/02 06:21:47;;;;;;;13.70;8.27;;;;;;;2.50;57.58;97681.31;5088036;28;20155;-70
2022/04/02 06:24:17;;;;;;;8.88;7.65;;;;;;;3.05;57.62;97772.75;5089531;28;20193;-70
2022/04/02 06:26:49;;;;;;;18.35;8.60;;;;;;;3.10;57.60;97770.75;5071897;28;20044;-69
2022/04/02 06:29:19;;;;;;;10.93;7.72;;;;;;;3.15;57.59;97774.84;5071766;28;20044;-70
2022/04/02 06:31:48;;;;;;;10.77;7.53;;;;;;;3.17;57.37;97777.38;5089080;28;20040;-69
2022/04/02 06:34:19;;;;;;;9.60;7.68;;;;;;;3.23;57.22;97781.47;5089348;28;20312;-70
2022/04/02 06:36:49;;;;;;;15.18;8.80;;;;;;;3.24;56.78;97783.16;5089204;28;20059;-70
2022/04/02 06:39:19;;;;;;;15.35;8.27;;;;;;;3.27;56.90;97776.00;5071501;28;20051;-70
2022/04/02 06:41:51;;;;;;;18.10;8.70;;;;;;;3.30;57.00;97788.09;5071828;28;20231;-70
2022/04/02 06:44:20;;;;;;;16.02;8.65;;;;;;;3.26;57.08;97782.16;5089184;28;20047;-70
2022/04/02 06:46:50;;;;;;;12.32;7.72;;;;;;;3.06;56.91;97743.91;5088843;28;20044;-70
2022/04/02 06:49:20;;;;;;;10.88;8.20;;;;;;;3.31;56.47;97785.38;5088530;28;20037;-70
2022/04/02 06:51:51;;;;;;;12.40;8.43;;;;;;;3.30;56.68;97791.56;5072110;28;20036;-70
2022/04/02 06:54:21;;;;;;;13.07;7.28;;;;;;;3.30;56.75;97791.56;5088819;28;20040;-70
2022/04/02 06:56:52;;;;;;;11.15;7.70;;;;;;;3.35;56.23;97794.78;5071332;28;20044;-70
2022/04/02 06:59:21;;;;;;;13.43;7.68;;;;;;;3.04;56.59;97744.91;5071345;28;20192;-69
2022/04/02 07:01:51;;;;;;;10.07;7.60;;;;;;;2.96;56.46;97731.34;5088584;28;20056;-70
2022/04/02 07:04:23;;;;;;;13.57;9.05;;;;;;;3.41;56.39;97807.56;5088417;28;20102;-70
2022/04/02 07:06:52;;;;;;;11.27;8.27;;;;;;;3.44;56.37;97806.56;5088961;28;20032;-70
2022/04/02 07:09:22;;;;;;;12.95;8.32;;;;;;;3.38;55.90;97806.88;5088669;28;20055;-70
2022/04/02 07:11:55;;;;;;;10.50;8.13;;;;;;;3.36;56.33;97813.97;5088640;28;20040;-70
2022/04/02 07:14:23;;;;;;;12.50;8.02;;;;;;;3.38;56.44;97812.97;5070891;28;20060;-69
2022/04/02 07:16:53;;;;;;;13.40;9.30;;;;;;;3.02;56.39;97755.44;5071060;28;20319;-70
2022/04/02 07:19:25;;;;;;;11.20;8.77;;;;;;;3.41;56.11;97823.28;5088337;28;20048;-70
2022/04/02 07:21:55;;;;;;;11.57;7.80;;;;;;;3.39;56.25;97819.03;5088605;28;20292;-69
2022/04/02 07:24:24;;;;;;;10.98;8.32;;;;;;;3.41;56.08;97819.81;5088242;28;20053;-69
2022/04/02 07:26:56;;;;;;;14.63;9.20;;;;;;;3.41;55.76;97823.28;5088372;28;20051;-69
2022/04/02 07:29:26;;;;;;;13.50;7.93;;;;;;;1.26;55.90;97449.59;5054134;28;20059;-70
2022/04/02 07:31:54;;;;;;;11.30;8.52;;;;;;;3.52;56.03;97817.50;5087678;28;20049;-70
2022/04/02 07:34:25;;;;;;;15.07;9.70;;;;;;;3.62;56.17;97830.97;5088316;28;20041;-70
2022/04/02 07:37:05;;;;;;;16.88;8.88;;;;;;;3.67;55.57;97834.19;5088179;28;20044;-70
2022/04/02 07:39:49;;;;;;;11.50;8.95;;;;;;;3.68;55.28;97831.50;5088120;28;20040;-69
2022/04/02 07:42:26;;;;;;;10.38;8.95;;;;;;;3.47;55.56;97785.44;5088252;28;20204;-69
2022/04/02 07:45:05;;;;;;;11.13;8.40;;;;;;;3.80;55.30;97816.91;5088191;28;20197;-69
2022/04/02 07:47:39;;;;;;;12.95;9.57;;;;;;;3.94;55.49;97826.69;5070330;28;20045;-70
2022/04/02 07:50:14;;;;;;;14.77;8.75;;;;;;;4.01;55.35;97828.91;5088145;28;20043;-70
2022/04/02 07:52:50;;;;;;;10.35;8.00;;;;;;;3.82;55.48;97781.84;5087952;28;20047;-70
2022/04/02 07:55:24;;;;;;;15.65;9.20;;;;;;;3.12;54.90;97738.34;5087861;28;20052;-69
2022/04/02 07:58:03;;;;;;;14.13;9.00;;;;;;;4.03;54.62;97836.69;5070864;28;20178;-69
2022/04/02 08:00:37;;;;;;;13.18;8.95;;;;;;;3.61;55.00;97766.41;5069993;28;20040;-70
2022/04/02 08:03:11;;;;;;;11.87;8.80;;;;;;;4.03;55.04;97847.16;5087598;28;20040;-69
2022/04/02 08:05:44;;;;;;;14.88;9.05;;;;;;;3.80;54.68;97809.06;5087201;28;20459;-70
2022/04/02 08:08:17;;;;;;;13.77;9.73;;;;;;;3.08;55.01;97687.09;5087318;28;20047;-69
2022/04/02 08:10:52;;;;;;;11.43;8.57;;;;;;;4.11;54.55;97852.84;5069775;28;20036;-70
2022/04/02 08:13:26;;;;;;;;;;;;;;;4.09;54.02;97855.56;5087756;28;20040;-69
2022/04/02 08:15:59;;;;;;;12.98;9.82;;;;;;;4.14;55.05;97852.69;5069636;28;19924;-70
2022/04/02 08:18:31;;;;;;;12.32;8.57;;;;;;;4.21;54.64;97853.25;5087133;28;20036;-70
2022/04/02 08:21:04;;;;;;;13.65;9.65;;;;;;;4.22;54.70;97853.16;5086998;28;20082;-69
2022/04/02 08:23:37;;;;;;;14.73;9.07;;;;;;;4.18;54.41;97851.59;5087246;28;20048;-70
2022/04/02 08:26:26;;;;;;;13.43;9.27;;;;;;;4.17;53.55;97856.00;5087096;28;20051;-69
2022/04/02 08:29:16;;;;;;;12.15;8.70;;;;;;;4.18;53.68;97862.94;5087206;28;20047;-69
2022/04/02 08:32:00;;;;;;;14.70;8.70;;;;;;;4.22;53.86;97861.03;5087110;28;20040;-69
2022/04/02 08:34:46;;;;;;;10.88;8.15;;;;;;;4.25;53.97;97862.63;5086712;28;20041;-70
2022/04/02 08:37:25;;;;;;;11.88;8.77;;;;;;;4.22;53.64;97853.16;5086905;28;20040;-71
2022/04/02 08:40:05;;;;;;;15.18;9.38;;;;;;;4.22;53.19;97868.03;5086702;28;20040;-70
2022/04/02 08:43:11;;;;;;;12.10;8.68;;;;;;;4.22;53.03;97866.28;5086678;28;20040;-69
2022/04/02 08:45:58;;;;;;;15.15;8.82;;;;;;;4.26;53.26;97867.81;5086038;28;20284;-70
2022/04/02 08:48:35;;;;;;;9.60;7.45;;;;;;;4.24;53.49;97871.44;5068856;28;20040;-70
2022/04/02 08:51:15;;;;;;;10.35;7.75;;;;;;;3.66;53.61;97780.09;5086713;28;20040;-70
2022/04/02 08:53:54;;;;;;;10.88;8.13;;;;;;;4.28;53.66;97865.94;5086486;28;20055;-70
2022/04/02 08:56:29;;;;;;;10.45;7.75;;;;;;;4.38;54.00;97869.78;5068937;28;20052;-70
2022/04/02 08:59:04;;;;;;;14.63;8.95;;;;;;;3.03;53.62;97635.91;5086338;28;20051;-70
2022/04/02 09:01:58;;;;;;;12.20;8.63;;;;;;;4.53;52.69;97878.59;5086576;28;20041;-70
2022/04/02 09:05:09;;;;;;;15.02;9.43;;;;;;;4.52;52.34;97876.91;5085927;28;20048;-70
2022/04/02 09:08:24;;;;;;;10.65;8.48;;;;;;;3.36;52.10;97704.81;5086183;28;20292;-70
2022/04/02 09:11:32;;;;;;;12.18;8.57;;;;;;;4.56;51.90;97878.41;5086094;28;20189;-70
2022/04/02 09:14:28;;;;;;;12.60;10.57;;;;;;;4.56;51.91;97878.41;5086162;28;20131;-70
2022/04/02 09:17:05;;;;;;;13.18;7.82;;;;;;;4.55;52.35;97874.09;5085835;28;20309;-69
2022/04/02 09:19:52;;;;;;;11.52;8.07;;;;;;;4.54;51.25;97880.28;5069223;28;20323;-69
2022/04/02 09:22:35;;;;;;;9.75;6.82;;;;;;;4.19;51.61;97827.06;5085873;28;20196;-70
2022/04/02 09:25:35;;;;;;;19.02;9.10;;;;;;;4.56;51.20;97888.91;5085886;28;20040;-69
2022/04/02 09:28:28;;;;;;;10.23;6.72;;;;;;;4.53;51.49;97891.72;5086055;28;20051;-70
2022/04/02 09:31:36;;;;;;;14.10;7.93;;;;;;;4.36;51.19;97852.41;5085625;28;20047;-69
2022/04/02 09:34:50;;;;;;;11.65;8.25;;;;;;;4.51;50.52;97890.94;5082648;28;20056;-69
2022/04/02 09:37:37;;;;;;;13.07;8.38;;;;;;;4.49;50.98;97895.44;5041726;28;20067;-69
2022/04/02 09:40:11;;;;;;;13.43;7.47;;;;;;;4.11;52.26;97830.09;5085568;28;20036;-69
2022/04/02 09:42:45;;;;;;;10.68;7.57;;;;;;;4.50;52.30;97905.00;5085918;28;20040;-70
2022/04/02 09:45:21;;;;;;;11.68;7.43;;;;;;;4.53;51.88;97899.56;5068430;28;20056;-69
2022/04/02 09:48:07;;;;;;;10.23;7.90;;;;;;;4.55;50.81;97902.97;5085412;28;20044;-69
2022/04/02 09:50:43;;;;;;;12.10;8.18;;;;;;;4.53;51.63;97904.81;5068073;28;20047;-69
2022/04/02 09:53:23;;;;;;;10.82;7.85;;;;;;;4.49;51.27;97919.03;5085597;28;20040;-69
2022/04/02 09:56:11;;;;;;;12.18;7.95;;;;;;;4.21;50.82;97859.34;5084937;28;20047;-69
2022/04/02 09:59:18;;;;;;;10.88;8.07;;;;;;;4.56;50.68;97907.28;5085406;28;20036;-68
2022/04/02 10:02:03;;;;;;;14.63;9.05;;;;;;;3.07;51.21;97663.59;5071903;28;20057;-69
2022/04/02 10:04:41;;;;;;;13.43;8.07;;;;;;;4.28;51.07;97849.34;5085193;28;20060;-69
2022/04/02 10:07:21;;;;;;;14.30;10.07;;;;;;;3.84;50.79;97802.72;5085255;28;20044;-70
2022/04/02 10:09:56;;;;;;;17.45;9.85;;;;;;;4.48;51.38;97901.59;5085290;28;20041;-69
2022/04/02 10:12:30;;;;;;;13.73;9.82;;;;;;;4.56;51.84;97891.53;5085519;28;20047;-69
2022/04/02 10:15:03;;;;;;;10.30;8.40;;;;;;;1.62;51.45;97621.09;5067723;28;20040;-68
2022/04/02 10:17:40;;;;;;;12.32;8.80;;;;;;;4.27;51.04;97840.66;5085059;28;20063;-69
2022/04/02 10:20:14;;;;;;;14.73;10.00;;;;;;;4.41;51.97;97845.16;5085195;28;20307;-69
2022/04/02 10:22:47;;;;;;;12.48;9.25;;;;;;;4.64;51.73;97906.88;5085196;28;20177;-69
2022/04/02 10:25:28;;;;;;;11.18;7.55;;;;;;;4.61;50.82;97913.13;5067680;28;20045;-68
2022/04/02 10:28:02;;;;;;;12.70;8.75;;;;;;;4.52;51.62;97925.91;5085386;28;20044;-69
2022/04/02 10:30:39;;;;;;;17.27;9.85;;;;;;;4.49;51.91;97919.88;5067697;28;20049;-69
2022/04/02 10:33:37;;;;;;;12.45;8.93;;;;;;;4.51;51.22;97917.19;5085280;28;20044;-69
2022/04/02 10:36:11;;;;;;;11.63;8.05;;;;;;;3.99;52.00;97880.56;5067551;28;20036;-69
2022/04/02 10:38:51;;;;;;;12.18;9.10;;;;;;;4.53;51.35;97931.06;5084925;28;20036;-69
2022/04/02 10:41:29;;;;;;;22.88;8.20;;;;;;;4.51;51.00;97930.28;5085056;28;20292;-69
2022/04/02 10:44:11;;;;;;;11.93;8.82;;;;;;;4.43;50.80;97932.47;5067541;28;20059;-70
2022/04/02 10:46:50;;;;;;;15.40;8.05;;;;;;;4.44;51.23;97931.56;5085036;28;20047;-70
2022/04/02 10:49:33;;;;;;;12.80;8.20;;;;;;;4.43;51.01;97935.09;5084901;28;20319;-70
2022/04/02 10:52:06;;;;;;;13.30;8.07;;;;;;;4.17;51.49;97910.22;5085141;28;20048;-70
2022/04/02 10:54:39;;;;;;;11.32;7.78;;;;;;;4.34;51.65;97938.22;5084941;28;20301;-70
2022/04/02 10:57:13;;;;;;;11.60;9.30;;;;;;;4.35;51.61;97945.16;5084752;28;20040;-69
2022/04/02 10:59:45;;;;;;;16.25;8.48;;;;;;;4.33;51.13;97934.75;5084998;28;20040;-70
2022/04/02 11:02:22;;;;;;;13.95;9.70;;;;;;;4.26;50.92;97945.63;5084994;28;20043;-70
2022/04/02 11:04:59;;;;;;;15.88;8.70;;;;;;;4.29;51.36;97945.47;5084595;28;20063;-70
2022/04/02 11:07:35;;;;;;;13.82;9.18;;;;;;;4.29;51.87;97955.97;5085515;28;20292;-69
2022/04/02 11:10:09;;;;;;;11.00;8.30;;;;;;;4.28;51.89;97960.34;5088375;28;20052;-69
2022/04/02 11:12:44;;;;;;;13.02;8.75;;;;;;;2.62;51.64;97709.47;5088464;28;20047;-69
2022/04/02 11:15:20;;;;;;;13.00;8.68;;;;;;;4.29;51.28;97946.31;5088567;28;20044;-69
2022/04/02 11:17:54;;;;;;;10.27;8.18;;;;;;;4.21;51.69;97973.88;5070674;28;20055;-70
2022/04/02 11:20:28;;;;;;;10.90;8.32;;;;;;;3.85;51.57;97911.88;5088464;28;20040;-69
2022/04/02 11:23:24;;;;;;;13.32;8.43;;;;;;;4.13;50.30;97966.38;5088151;28;20040;-69
2022/04/02 11:26:03;;;;;;;13.65;9.13;;;;;;;4.13;50.70;97966.38;5067692;28;20056;-69
2022/04/02 11:28:46;;;;;;;11.10;8.77;;;;;;;4.18;50.63;97966.97;5087967;28;20204;-69
2022/04/02 11:31:28;;;;;;;10.52;8.23;;;;;;;4.18;50.50;97966.97;5088063;28;20036;-69
2022/04/02 11:34:08;;;;;;;14.40;9.63;;;;;;;4.18;50.61;97969.59;5070575;28;20048;-69
2022/04/02 11:36:44;;;;;;;13.95;8.75;;;;;;;4.22;51.39;97965.06;5087916;28;20040;-70
2022/04/02 11:39:24;;;;;;;10.98;7.90;;;;;;;4.21;51.08;97963.38;5088027;28;20059;-70
2022/04/02 11:42:02;;;;;;;11.00;8.32;;;;;;;4.25;51.52;97972.78;5070542;28;20099;-69
2022/04/02 11:44:38;;;;;;;14.05;9.23;;;;;;;4.23;51.46;97954.50;5087703;28;20036;-70
2022/04/02 11:47:10;;;;;;;13.23;9.15;;;;;;;3.28;51.66;97848.38;5087991;28;20040;-70
2022/04/02 11:49:43;;;;;;;11.48;8.45;;;;;;;4.19;51.75;97966.03;5087852;28;20079;-69
2022/04/02 11:52:16;;;;;;;11.63;7.25;;;;;;;4.11;51.92;97948.09;5070825;28;20052;-69
2022/04/02 11:54:59;;;;;;;11.23;9.32;;;;;;;4.17;51.26;97958.25;5088009;28;20035;-69
2022/04/02 11:57:31;;;;;;;16.35;9.65;;;;;;;3.90;52.30;97915.09;5087441;28;20040;-69
2022/04/02 12:00:14;;;;;;;9.45;7.68;;;;;;;4.14;51.81;97958.41;5087806;28;20285;-69
2022/04/02 12:02:47;;;;;;;14.13;8.95;;;;;;;4.15;52.51;97967.13;5087448;28;20041;-69
2022/04/02 12:05:21;;;;;;;13.80;8.55;;;;;;;4.15;52.19;97956.66;5087243;28;20064;-71
2022/04/02 12:07:53;;;;;;;15.15;9.98;;;;;;;3.61;52.60;97876.44;5087493;28;20049;-70
2022/04/02 12:10:27;;;;;;;15.10;10.05;;;;;;;4.16;52.34;97966.22;5087614;28;20040;-71
2022/04/02 12:13:02;;;;;;;10.13;8.57;;;;;;;4.17;52.21;97963.50;5087377;28;20036;-71
2022/04/02 12:15:36;;;;;;;10.40;9.10;;;;;;;-1.62;52.07;97005.59;5087549;28;20044;-71